sensor_id;sensor_type;location;lat;lon;timestamp;P1;durP1;ratioP1;P2;durP2;ratioP2
38117;SDS011;23928;47.562;7.508;2023-11-19T00:00:36;11.80;;;7.93;;
38117;SDS011;23928;47.562;7.508;2023-11-19T00:03:01;8.70;;;7.30;;
38117;SDS011;23928;47.562;7.508;2023-11-19T00:05:27;8.57;;;7.30;;
38117;SDS011;23928;47.562;7.508;2023-11-19T00:07:53;10.47;;;7.80;;
38117;SDS011;23928;47.562;7.508;2023-11-19T00:10:18;9.93;;;7.87;;
38117;SDS011;23928;47.562;7.508;2023-11-19T00:12:46;12.83;;;9.27;;
38117;SDS011;23928;47.562;7.508;2023-11-19T00:15:14;11.57;;;8.63;;
38117;SDS011;23928;47.562;7.508;2023-11-19T00:17:40;12.33;;;9.20;;
38117;SDS011;23928;47.562;7.508;2023-11-19T00:20:12;11.53;;;8.73;;
38117;SDS011;23928;47.562;7.508;2023-11-19T00:22:42;13.37;;;8.87;;
38117;SDS011;23928;47.562;7.508;2023-11-19T00:25:08;11.60;;;9.03;;
38117;SDS011;23928;47.562;7.508;2023-11-19T00:27:35;13.00;;;9.87;;
38117;SDS011;23928;47.562;7.508;2023-11-19T00:30:01;13.43;;;8.77;;
38117;SDS011;23928;47.562;7.508;2023-11-19T00:32:27;11.30;;;8.70;;
38117;SDS011;23928;47.562;7.508;2023-11-19T00:34:52;12.80;;;8.40;;
38117;SDS011;23928;47.562;7.508;2023-11-19T00:37:18;11.53;;;8.97;;
38117;SDS011;23928;47.562;7.508;2023-11-19T00:39:43;12.23;;;8.93;;
38117;SDS011;23928;47.562;7.508;2023-11-19T00:42:10;10.17;;;7.60;;
38117;SDS011;23928;47.562;7.508;2023-11-19T00:44:36;12.57;;;9.47;;
38117;SDS011;23928;47.562;7.508;2023-11-19T00:47:02;12.53;;;8.47;;
38117;SDS011;23928;47.562;7.508;2023-11-19T00:49:28;11.73;;;9.10;;
38117;SDS011;23928;47.562;7.508;2023-11-19T00:51:53;12.73;;;9.60;;
38117;SDS011;23928;47.562;7.508;2023-11-19T00:54:20;13.00;;;9.13;;
38117;SDS011;23928;47.562;7.508;2023-11-19T00:56:46;11.97;;;8.93;;
38117;SDS011;23928;47.562;7.508;2023-11-19T00:59:11;12.07;;;8.60;;
38117;SDS011;23928;47.562;7.508;2023-11-19T01:01:37;12.30;;;9.03;;
38117;SDS011;23928;47.562;7.508;2023-11-19T01:04:02;12.00;;;8.47;;
38117;SDS011;23928;47.562;7.508;2023-11-19T01:06:28;15.17;;;9.30;;
38117;SDS011;23928;47.562;7.508;2023-11-19T01:08:55;13.50;;;8.90;;
38117;SDS011;23928;47.562;7.508;2023-11-19T01:11:22;12.70;;;9.00;;
38117;SDS011;23928;47.562;7.508;2023-11-19T01:13:48;12.57;;;9.60;;
38117;SDS011;23928;47.562;7.508;2023-11-19T01:16:14;12.37;;;8.90;;
38117;SDS011;23928;47.562;7.508;2023-11-19T01:18:42;14.03;;;9.23;;
38117;SDS011;23928;47.562;7.508;2023-11-19T01:21:07;13.67;;;9.10;;
38117;SDS011;23928;47.562;7.508;2023-11-19T01:23:33;12.00;;;8.47;;
38117;SDS011;23928;47.562;7.508;2023-11-19T01:25:59;13.80;;;8.83;;
38117;SDS011;23928;47.562;7.508;2023-11-19T01:28:25;12.43;;;9.67;;
38117;SDS011;23928;47.562;7.508;2023-11-19T01:30:51;13.13;;;8.93;;
38117;SDS011;23928;47.562;7.508;2023-11-19T01:33:16;12.50;;;8.77;;
38117;SDS011;23928;47.562;7.508;2023-11-19T01:35:42;12.40;;;10.00;;
38117;SDS011;23928;47.562;7.508;2023-11-19T01:38:08;13.53;;;9.00;;
38117;SDS011;23928;47.562;7.508;2023-11-19T01:40:33;11.93;;;8.33;;
38117;SDS011;23928;47.562;7.508;2023-11-19T01:43:01;13.13;;;8.30;;
38117;SDS011;23928;47.562;7.508;2023-11-19T01:45:28;12.33;;;8.80;;
38117;SDS011;23928;47.562;7.508;2023-11-19T01:47:55;11.97;;;8.63;;
38117;SDS011;23928;47.562;7.508;2023-11-19T01:50:21;11.27;;;7.70;;
38117;SDS011;23928;47.562;7.508;2023-11-19T01:52:49;12.67;;;9.10;;
38117;SDS011;23928;47.562;7.508;2023-11-19T01:55:19;12.77;;;9.17;;
38117;SDS011;23928;47.562;7.508;2023-11-19T01:57:46;11.67;;;8.53;;
38117;SDS011;23928;47.562;7.508;2023-11-19T02:00:14;13.77;;;9.37;;
38117;SDS011;23928;47.562;7.508;2023-11-19T02:02:41;12.47;;;9.07;;
38117;SDS011;23928;47.562;7.508;2023-11-19T02:05:08;15.73;;;9.77;;
38117;SDS011;23928;47.562;7.508;2023-11-19T02:07:34;14.17;;;9.77;;
38117;SDS011;23928;47.562;7.508;2023-11-19T02:09:59;11.53;;;8.53;;
38117;SDS011;23928;47.562;7.508;2023-11-19T02:12:27;14.23;;;9.37;;
38117;SDS011;23928;47.562;7.508;2023-11-19T02:14:53;15.80;;;9.30;;
38117;SDS011;23928;47.562;7.508;2023-11-19T02:17:28;11.53;;;8.87;;
38117;SDS011;23928;47.562;7.508;2023-11-19T02:19:59;12.50;;;8.50;;
38117;SDS011;23928;47.562;7.508;2023-11-19T02:22:25;13.30;;;9.13;;
38117;SDS011;23928;47.562;7.508;2023-11-19T02:24:51;13.03;;;9.80;;
38117;SDS011;23928;47.562;7.508;2023-11-19T02:27:30;15.67;;;10.53;;
38117;SDS011;23928;47.562;7.508;2023-11-19T02:30:09;14.60;;;10.40;;
38117;SDS011;23928;47.562;7.508;2023-11-19T02:32:36;16.47;;;10.50;;
38117;SDS011;23928;47.562;7.508;2023-11-19T02:35:05;16.53;;;11.33;;
38117;SDS011;23928;47.562;7.508;2023-11-19T02:37:32;15.73;;;11.03;;
38117;SDS011;23928;47.562;7.508;2023-11-19T02:39:59;21.80;;;11.53;;
38117;SDS011;23928;47.562;7.508;2023-11-19T02:42:34;17.10;;;11.00;;
38117;SDS011;23928;47.562;7.508;2023-11-19T02:45:00;15.80;;;10.67;;
38117;SDS011;23928;47.562;7.508;2023-11-19T02:47:27;15.47;;;10.63;;
38117;SDS011;23928;47.562;7.508;2023-11-19T02:49:55;16.03;;;10.90;;
38117;SDS011;23928;47.562;7.508;2023-11-19T02:52:21;14.83;;;10.50;;
38117;SDS011;23928;47.562;7.508;2023-11-19T02:54:46;15.47;;;11.33;;
38117;SDS011;23928;47.562;7.508;2023-11-19T02:57:12;16.47;;;10.67;;
38117;SDS011;23928;47.562;7.508;2023-11-19T02:59:39;13.17;;;10.63;;
38117;SDS011;23928;47.562;7.508;2023-11-19T03:02:06;14.43;;;10.40;;
38117;SDS011;23928;47.562;7.508;2023-11-19T03:04:36;14.80;;;10.33;;
38117;SDS011;23928;47.562;7.508;2023-11-19T03:07:10;13.83;;;10.27;;
38117;SDS011;23928;47.562;7.508;2023-11-19T03:09:37;14.77;;;11.23;;
38117;SDS011;23928;47.562;7.508;2023-11-19T03:12:05;13.70;;;9.93;;
38117;SDS011;23928;47.562;7.508;2023-11-19T03:14:33;13.10;;;10.00;;
38117;SDS011;23928;47.562;7.508;2023-11-19T03:16:59;12.97;;;10.23;;
38117;SDS011;23928;47.562;7.508;2023-11-19T03:19:25;11.57;;;9.03;;
38117;SDS011;23928;47.562;7.508;2023-11-19T03:21:51;13.80;;;10.40;;
38117;SDS011;23928;47.562;7.508;2023-11-19T03:24:17;15.57;;;10.67;;
38117;SDS011;23928;47.562;7.508;2023-11-19T03:26:47;15.20;;;10.43;;
38117;SDS011;23928;47.562;7.508;2023-11-19T03:29:15;14.33;;;10.57;;
38117;SDS011;23928;47.562;7.508;2023-11-19T03:31:43;15.73;;;10.03;;
38117;SDS011;23928;47.562;7.508;2023-11-19T03:34:12;13.63;;;10.20;;
38117;SDS011;23928;47.562;7.508;2023-11-19T03:36:37;15.03;;;12.10;;
38117;SDS011;23928;47.562;7.508;2023-11-19T03:39:03;13.60;;;10.50;;
38117;SDS011;23928;47.562;7.508;2023-11-19T03:41:29;15.97;;;10.87;;
38117;SDS011;23928;47.562;7.508;2023-11-19T03:43:54;14.17;;;10.70;;
38117;SDS011;23928;47.562;7.508;2023-11-19T03:46:21;16.43;;;11.77;;
38117;SDS011;23928;47.562;7.508;2023-11-19T03:48:47;15.43;;;11.47;;
38117;SDS011;23928;47.562;7.508;2023-11-19T03:51:13;17.47;;;11.70;;
38117;SDS011;23928;47.562;7.508;2023-11-19T03:53:43;15.93;;;11.47;;
38117;SDS011;23928;47.562;7.508;2023-11-19T03:56:11;16.73;;;11.90;;
38117;SDS011;23928;47.562;7.508;2023-11-19T03:58:37;14.73;;;11.10;;
38117;SDS011;23928;47.562;7.508;2023-11-19T04:01:04;20.83;;;11.10;;
38117;SDS011;23928;47.562;7.508;2023-11-19T04:03:30;15.60;;;11.53;;
38117;SDS011;23928;47.562;7.508;2023-11-19T04:05:56;13.50;;;10.40;;
38117;SDS011;23928;47.562;7.508;2023-11-19T04:08:22;14.33;;;10.57;;
38117;SDS011;23928;47.562;7.508;2023-11-19T04:10:48;15.03;;;10.90;;
38117;SDS011;23928;47.562;7.508;2023-11-19T04:13:13;17.57;;;11.30;;
38117;SDS011;23928;47.562;7.508;2023-11-19T04:15:39;14.93;;;11.33;;
38117;SDS011;23928;47.562;7.508;2023-11-19T04:18:05;16.90;;;12.37;;
38117;SDS011;23928;47.562;7.508;2023-11-19T04:20:30;16.57;;;12.20;;
38117;SDS011;23928;47.562;7.508;2023-11-19T04:22:56;16.40;;;11.97;;
38117;SDS011;23928;47.562;7.508;2023-11-19T04:25:22;14.03;;;10.80;;
38117;SDS011;23928;47.562;7.508;2023-11-19T04:27:51;15.83;;;11.40;;
38117;SDS011;23928;47.562;7.508;2023-11-19T04:30:17;16.93;;;13.13;;
38117;SDS011;23928;47.562;7.508;2023-11-19T04:32:43;16.00;;;11.57;;
38117;SDS011;23928;47.562;7.508;2023-11-19T04:35:09;16.30;;;12.00;;
38117;SDS011;23928;47.562;7.508;2023-11-19T04:37:35;17.27;;;12.07;;
38117;SDS011;23928;47.562;7.508;2023-11-19T04:40:01;17.77;;;11.93;;
38117;SDS011;23928;47.562;7.508;2023-11-19T04:42:27;16.30;;;11.57;;
38117;SDS011;23928;47.562;7.508;2023-11-19T04:44:53;15.77;;;11.40;;
38117;SDS011;23928;47.562;7.508;2023-11-19T04:47:18;15.73;;;11.73;;
38117;SDS011;23928;47.562;7.508;2023-11-19T04:49:44;16.27;;;11.20;;
38117;SDS011;23928;47.562;7.508;2023-11-19T04:52:09;19.93;;;11.77;;
38117;SDS011;23928;47.562;7.508;2023-11-19T04:54:40;16.37;;;11.90;;
38117;SDS011;23928;47.562;7.508;2023-11-19T04:57:07;16.30;;;11.63;;
38117;SDS011;23928;47.562;7.508;2023-11-19T04:59:35;17.37;;;12.33;;
38117;SDS011;23928;47.562;7.508;2023-11-19T05:02:01;15.77;;;12.53;;
38117;SDS011;23928;47.562;7.508;2023-11-19T05:04:27;16.10;;;11.03;;
38117;SDS011;23928;47.562;7.508;2023-11-19T05:06:52;16.27;;;11.20;;
38117;SDS011;23928;47.562;7.508;2023-11-19T05:09:18;18.70;;;11.03;;
38117;SDS011;23928;47.562;7.508;2023-11-19T05:11:44;13.57;;;10.17;;
38117;SDS011;23928;47.562;7.508;2023-11-19T05:14:09;15.13;;;10.57;;
38117;SDS011;23928;47.562;7.508;2023-11-19T05:16:35;14.50;;;10.97;;
38117;SDS011;23928;47.562;7.508;2023-11-19T05:19:00;16.30;;;11.07;;
38117;SDS011;23928;47.562;7.508;2023-11-19T05:21:26;14.83;;;10.37;;
38117;SDS011;23928;47.562;7.508;2023-11-19T05:23:51;15.27;;;10.57;;
38117;SDS011;23928;47.562;7.508;2023-11-19T05:26:21;15.50;;;10.63;;
38117;SDS011;23928;47.562;7.508;2023-11-19T05:28:47;16.40;;;11.33;;
38117;SDS011;23928;47.562;7.508;2023-11-19T05:31:13;14.07;;;10.33;;
38117;SDS011;23928;47.562;7.508;2023-11-19T05:33:38;15.10;;;11.17;;
38117;SDS011;23928;47.562;7.508;2023-11-19T05:36:04;14.40;;;10.07;;
38117;SDS011;23928;47.562;7.508;2023-11-19T05:38:30;16.50;;;10.57;;
38117;SDS011;23928;47.562;7.508;2023-11-19T05:40:56;14.87;;;10.17;;
38117;SDS011;23928;47.562;7.508;2023-11-19T05:43:22;11.40;;;8.37;;
38117;SDS011;23928;47.562;7.508;2023-11-19T05:45:47;10.70;;;7.00;;
38117;SDS011;23928;47.562;7.508;2023-11-19T05:48:13;8.13;;;5.70;;
38117;SDS011;23928;47.562;7.508;2023-11-19T05:50:39;2.37;;;2.13;;
38117;SDS011;23928;47.562;7.508;2023-11-19T05:53:04;3.20;;;2.90;;
38117;SDS011;23928;47.562;7.508;2023-11-19T05:55:34;1.20;;;1.10;;
38117;SDS011;23928;47.562;7.508;2023-11-19T05:58:00;1.17;;;0.77;;
38117;SDS011;23928;47.562;7.508;2023-11-19T06:00:26;1.07;;;0.70;;
38117;SDS011;23928;47.562;7.508;2023-11-19T06:02:52;0.50;;;0.50;;
38117;SDS011;23928;47.562;7.508;2023-11-19T06:05:18;0.30;;;0.30;;
38117;SDS011;23928;47.562;7.508;2023-11-19T06:07:43;0.27;;;0.27;;
38117;SDS011;23928;47.562;7.508;2023-11-19T06:10:09;0.30;;;0.30;;
38117;SDS011;23928;47.562;7.508;2023-11-19T06:12:36;1.43;;;0.20;;
38117;SDS011;23928;47.562;7.508;2023-11-19T06:15:06;0.30;;;0.30;;
38117;SDS011;23928;47.562;7.508;2023-11-19T06:17:33;0.60;;;0.20;;
38117;SDS011;23928;47.562;7.508;2023-11-19T06:19:59;0.40;;;0.40;;
38117;SDS011;23928;47.562;7.508;2023-11-19T06:22:25;0.60;;;0.40;;
38117;SDS011;23928;47.562;7.508;2023-11-19T06:24:50;0.40;;;0.40;;
38117;SDS011;23928;47.562;7.508;2023-11-19T06:27:16;0.50;;;0.33;;
38117;SDS011;23928;47.562;7.508;2023-11-19T06:29:41;2.20;;;0.67;;
38117;SDS011;23928;47.562;7.508;2023-11-19T06:32:07;0.30;;;0.30;;
38117;SDS011;23928;47.562;7.508;2023-11-19T06:34:33;0.20;;;0.20;;
38117;SDS011;23928;47.562;7.508;2023-11-19T06:36:59;0.87;;;0.20;;
38117;SDS011;23928;47.562;7.508;2023-11-19T06:39:25;0.83;;;0.40;;
38117;SDS011;23928;47.562;7.508;2023-11-19T06:41:50;0.30;;;0.30;;
38117;SDS011;23928;47.562;7.508;2023-11-19T06:44:17;0.20;;;0.20;;
38117;SDS011;23928;47.562;7.508;2023-11-19T06:46:42;1.50;;;0.70;;
38117;SDS011;23928;47.562;7.508;2023-11-19T06:49:08;0.60;;;0.50;;
38117;SDS011;23928;47.562;7.508;2023-11-19T06:51:34;0.50;;;0.50;;
38117;SDS011;23928;47.562;7.508;2023-11-19T06:53:59;1.03;;;0.60;;
38117;SDS011;23928;47.562;7.508;2023-11-19T06:56:25;0.80;;;0.80;;
38117;SDS011;23928;47.562;7.508;2023-11-19T06:58:51;1.17;;;1.00;;
38117;SDS011;23928;47.562;7.508;2023-11-19T07:01:18;1.70;;;1.60;;
38117;SDS011;23928;47.562;7.508;2023-11-19T07:03:44;1.00;;;0.73;;
38117;SDS011;23928;47.562;7.508;2023-11-19T07:06:11;15.57;;;12.70;;
38117;SDS011;23928;47.562;7.508;2023-11-19T07:08:42;3.00;;;1.40;;
38117;SDS011;23928;47.562;7.508;2023-11-19T07:11:12;0.93;;;0.60;;
38117;SDS011;23928;47.562;7.508;2023-11-19T07:13:38;0.97;;;0.40;;
38117;SDS011;23928;47.562;7.508;2023-11-19T07:16:04;0.97;;;0.83;;
38117;SDS011;23928;47.562;7.508;2023-11-19T07:18:30;0.57;;;0.50;;
38117;SDS011;23928;47.562;7.508;2023-11-19T07:20:56;1.97;;;1.83;;
38117;SDS011;23928;47.562;7.508;2023-11-19T07:23:22;1.77;;;1.33;;
38117;SDS011;23928;47.562;7.508;2023-11-19T07:25:48;4.00;;;3.53;;
38117;SDS011;23928;47.562;7.508;2023-11-19T07:28:15;4.77;;;2.27;;
38117;SDS011;23928;47.562;7.508;2023-11-19T07:30:41;0.80;;;0.80;;
38117;SDS011;23928;47.562;7.508;2023-11-19T07:33:07;6.80;;;5.03;;
38117;SDS011;23928;47.562;7.508;2023-11-19T07:35:33;0.73;;;0.70;;
38117;SDS011;23928;47.562;7.508;2023-11-19T07:37:59;1.40;;;0.80;;
38117;SDS011;23928;47.562;7.508;2023-11-19T07:40:24;0.30;;;0.27;;
38117;SDS011;23928;47.562;7.508;2023-11-19T07:42:50;0.77;;;0.70;;
38117;SDS011;23928;47.562;7.508;2023-11-19T07:45:16;0.50;;;0.40;;
38117;SDS011;23928;47.562;7.508;2023-11-19T07:47:42;0.50;;;0.30;;
38117;SDS011;23928;47.562;7.508;2023-11-19T07:50:10;5.73;;;3.63;;
38117;SDS011;23928;47.562;7.508;2023-11-19T07:52:38;20.97;;;9.00;;
38117;SDS011;23928;47.562;7.508;2023-11-19T07:55:04;76.00;;;34.23;;
38117;SDS011;23928;47.562;7.508;2023-11-19T07:57:30;3.43;;;1.73;;
38117;SDS011;23928;47.562;7.508;2023-11-19T07:59:56;3.43;;;1.97;;
38117;SDS011;23928;47.562;7.508;2023-11-19T08:02:22;0.80;;;0.63;;
38117;SDS011;23928;47.562;7.508;2023-11-19T08:04:49;0.57;;;0.30;;
38117;SDS011;23928;47.562;7.508;2023-11-19T08:07:16;0.40;;;0.40;;
38117;SDS011;23928;47.562;7.508;2023-11-19T08:09:43;0.70;;;0.70;;
38117;SDS011;23928;47.562;7.508;2023-11-19T08:12:08;1.43;;;1.30;;
38117;SDS011;23928;47.562;7.508;2023-11-19T08:14:34;0.90;;;0.90;;
38117;SDS011;23928;47.562;7.508;2023-11-19T08:17:00;0.40;;;0.30;;
38117;SDS011;23928;47.562;7.508;2023-11-19T08:19:26;0.33;;;0.30;;
38117;SDS011;23928;47.562;7.508;2023-11-19T08:21:51;0.40;;;0.30;;
38117;SDS011;23928;47.562;7.508;2023-11-19T08:24:17;0.57;;;0.30;;
38117;SDS011;23928;47.562;7.508;2023-11-19T08:26:43;0.20;;;0.20;;
38117;SDS011;23928;47.562;7.508;2023-11-19T08:29:08;1.20;;;0.37;;
38117;SDS011;23928;47.562;7.508;2023-11-19T08:31:34;0.33;;;0.33;;
38117;SDS011;23928;47.562;7.508;2023-11-19T08:34:00;0.40;;;0.30;;
38117;SDS011;23928;47.562;7.508;2023-11-19T08:36:26;0.40;;;0.30;;
38117;SDS011;23928;47.562;7.508;2023-11-19T08:38:52;0.40;;;0.40;;
38117;SDS011;23928;47.562;7.508;2023-11-19T08:41:18;1.30;;;0.57;;
38117;SDS011;23928;47.562;7.508;2023-11-19T08:43:44;0.83;;;0.60;;
38117;SDS011;23928;47.562;7.508;2023-11-19T08:46:10;0.50;;;0.50;;
38117;SDS011;23928;47.562;7.508;2023-11-19T08:48:36;0.83;;;0.40;;
38117;SDS011;23928;47.562;7.508;2023-11-19T08:51:03;2.20;;;1.43;;
38117;SDS011;23928;47.562;7.508;2023-11-19T08:53:29;2.10;;;1.70;;
38117;SDS011;23928;47.562;7.508;2023-11-19T08:55:55;1.90;;;1.70;;
38117;SDS011;23928;47.562;7.508;2023-11-19T08:58:20;0.40;;;0.40;;
38117;SDS011;23928;47.562;7.508;2023-11-19T09:00:46;0.90;;;0.90;;
38117;SDS011;23928;47.562;7.508;2023-11-19T09:03:12;0.70;;;0.70;;
38117;SDS011;23928;47.562;7.508;2023-11-19T09:05:37;0.70;;;0.70;;
38117;SDS011;23928;47.562;7.508;2023-11-19T09:08:03;1.30;;;1.10;;
38117;SDS011;23928;47.562;7.508;2023-11-19T09:10:29;1.20;;;1.20;;
38117;SDS011;23928;47.562;7.508;2023-11-19T09:12:55;0.50;;;0.50;;
38117;SDS011;23928;47.562;7.508;2023-11-19T09:15:20;0.80;;;0.50;;
38117;SDS011;23928;47.562;7.508;2023-11-19T09:17:46;0.43;;;0.40;;
38117;SDS011;23928;47.562;7.508;2023-11-19T09:20:12;0.40;;;0.40;;
38117;SDS011;23928;47.562;7.508;2023-11-19T09:22:40;0.60;;;0.60;;
38117;SDS011;23928;47.562;7.508;2023-11-19T09:25:06;1.73;;;0.80;;
38117;SDS011;23928;47.562;7.508;2023-11-19T09:27:32;1.60;;;0.60;;
38117;SDS011;23928;47.562;7.508;2023-11-19T09:29:58;1.60;;;0.50;;
38117;SDS011;23928;47.562;7.508;2023-11-19T09:32:24;1.50;;;0.30;;
38117;SDS011;23928;47.562;7.508;2023-11-19T09:34:50;0.50;;;0.50;;
38117;SDS011;23928;47.562;7.508;2023-11-19T09:37:16;0.30;;;0.30;;
38117;SDS011;23928;47.562;7.508;2023-11-19T09:39:41;0.57;;;0.57;;
38117;SDS011;23928;47.562;7.508;2023-11-19T09:42:10;1.20;;;0.70;;
38117;SDS011;23928;47.562;7.508;2023-11-19T09:44:37;4.90;;;1.03;;
38117;SDS011;23928;47.562;7.508;2023-11-19T09:47:04;1.33;;;0.60;;
38117;SDS011;23928;47.562;7.508;2023-11-19T09:49:31;0.50;;;0.50;;
38117;SDS011;23928;47.562;7.508;2023-11-19T09:51:58;0.63;;;0.50;;
38117;SDS011;23928;47.562;7.508;2023-11-19T09:54:24;1.13;;;0.40;;
38117;SDS011;23928;47.562;7.508;2023-11-19T09:56:49;0.73;;;0.47;;
38117;SDS011;23928;47.562;7.508;2023-11-19T09:59:15;1.97;;;1.30;;
38117;SDS011;23928;47.562;7.508;2023-11-19T10:01:41;0.23;;;0.23;;
38117;SDS011;23928;47.562;7.508;2023-11-19T10:04:08;8.40;;;5.00;;
38117;SDS011;23928;47.562;7.508;2023-11-19T10:06:36;2.63;;;1.10;;
38117;SDS011;23928;47.562;7.508;2023-11-19T10:09:02;0.43;;;0.43;;
38117;SDS011;23928;47.562;7.508;2023-11-19T10:11:30;3.53;;;2.40;;
38117;SDS011;23928;47.562;7.508;2023-11-19T10:13:55;2.10;;;1.90;;
38117;SDS011;23928;47.562;7.508;2023-11-19T10:16:27;1.80;;;1.60;;
38117;SDS011;23928;47.562;7.508;2023-11-19T10:18:55;1.13;;;1.10;;
38117;SDS011;23928;47.562;7.508;2023-11-19T10:21:21;0.77;;;0.77;;
38117;SDS011;23928;47.562;7.508;2023-11-19T10:23:50;1.20;;;1.10;;
38117;SDS011;23928;47.562;7.508;2023-11-19T10:26:17;0.50;;;0.50;;
38117;SDS011;23928;47.562;7.508;2023-11-19T10:28:45;0.93;;;0.87;;
38117;SDS011;23928;47.562;7.508;2023-11-19T10:31:17;1.63;;;1.37;;
38117;SDS011;23928;47.562;7.508;2023-11-19T10:33:44;0.73;;;0.53;;
38117;SDS011;23928;47.562;7.508;2023-11-19T10:36:11;1.37;;;1.00;;
38117;SDS011;23928;47.562;7.508;2023-11-19T10:38:37;0.50;;;0.50;;
38117;SDS011;23928;47.562;7.508;2023-11-19T10:41:04;1.73;;;1.33;;
38117;SDS011;23928;47.562;7.508;2023-11-19T10:43:30;6.03;;;4.50;;
38117;SDS011;23928;47.562;7.508;2023-11-19T10:46:08;3.90;;;2.40;;
38117;SDS011;23928;47.562;7.508;2023-11-19T10:48:38;6.93;;;6.07;;
38117;SDS011;23928;47.562;7.508;2023-11-19T10:51:05;1.63;;;1.43;;
38117;SDS011;23928;47.562;7.508;2023-11-19T10:53:36;2.20;;;1.47;;
38117;SDS011;23928;47.562;7.508;2023-11-19T10:56:06;2.30;;;1.73;;
38117;SDS011;23928;47.562;7.508;2023-11-19T10:58:35;2.70;;;2.00;;
38117;SDS011;23928;47.562;7.508;2023-11-19T11:01:09;4.17;;;3.27;;
38117;SDS011;23928;47.562;7.508;2023-11-19T11:03:40;1.47;;;1.37;;
38117;SDS011;23928;47.562;7.508;2023-11-19T11:06:07;1.40;;;1.20;;
38117;SDS011;23928;47.562;7.508;2023-11-19T11:08:35;2.73;;;1.43;;
38117;SDS011;23928;47.562;7.508;2023-11-19T11:11:02;3.97;;;1.83;;
38117;SDS011;23928;47.562;7.508;2023-11-19T11:13:29;1.90;;;1.00;;
38117;SDS011;23928;47.562;7.508;2023-11-19T11:15:57;0.80;;;0.80;;
38117;SDS011;23928;47.562;7.508;2023-11-19T11:18:23;1.10;;;1.07;;
38117;SDS011;23928;47.562;7.508;2023-11-19T11:20:54;1.00;;;0.93;;
38117;SDS011;23928;47.562;7.508;2023-11-19T11:23:37;0.77;;;0.77;;
38117;SDS011;23928;47.562;7.508;2023-11-19T11:37:49;1.73;;;1.60;;
38117;SDS011;23928;47.562;7.508;2023-11-19T11:40:20;1.87;;;1.20;;
38117;SDS011;23928;47.562;7.508;2023-11-19T11:42:48;2.33;;;1.50;;
38117;SDS011;23928;47.562;7.508;2023-11-19T11:45:16;1.13;;;0.87;;
38117;SDS011;23928;47.562;7.508;2023-11-19T11:50:08;1.67;;;1.23;;
38117;SDS011;23928;47.562;7.508;2023-11-19T11:55:24;1.87;;;1.60;;
38117;SDS011;23928;47.562;7.508;2023-11-19T11:57:50;1.53;;;0.90;;
38117;SDS011;23928;47.562;7.508;2023-11-19T12:00:22;2.50;;;2.30;;
38117;SDS011;23928;47.562;7.508;2023-11-19T12:02:54;2.80;;;2.60;;
38117;SDS011;23928;47.562;7.508;2023-11-19T12:05:26;1.60;;;1.40;;
38117;SDS011;23928;47.562;7.508;2023-11-19T12:08:02;1.33;;;1.23;;
38117;SDS011;23928;47.562;7.508;2023-11-19T12:10:32;1.33;;;0.90;;
38117;SDS011;23928;47.562;7.508;2023-11-19T12:13:18;3.03;;;0.87;;
38117;SDS011;23928;47.562;7.508;2023-11-19T12:18:28;0.90;;;0.73;;
38117;SDS011;23928;47.562;7.508;2023-11-19T12:20:55;1.27;;;1.10;;
38117;SDS011;23928;47.562;7.508;2023-11-19T12:23:22;1.03;;;1.03;;
38117;SDS011;23928;47.562;7.508;2023-11-19T12:25:48;2.00;;;1.53;;
38117;SDS011;23928;47.562;7.508;2023-11-19T12:28:15;0.90;;;0.90;;
38117;SDS011;23928;47.562;7.508;2023-11-19T12:30:44;1.33;;;0.90;;
38117;SDS011;23928;47.562;7.508;2023-11-19T12:33:11;1.13;;;0.90;;
38117;SDS011;23928;47.562;7.508;2023-11-19T12:35:41;1.30;;;1.10;;
38117;SDS011;23928;47.562;7.508;2023-11-19T12:38:07;1.47;;;1.37;;
38117;SDS011;23928;47.562;7.508;2023-11-19T12:40:43;0.80;;;0.80;;
38117;SDS011;23928;47.562;7.508;2023-11-19T12:43:08;2.93;;;2.03;;
38117;SDS011;23928;47.562;7.508;2023-11-19T12:45:34;6.37;;;3.47;;
38117;SDS011;23928;47.562;7.508;2023-11-19T12:48:06;1.73;;;1.50;;
38117;SDS011;23928;47.562;7.508;2023-11-19T12:53:46;1.57;;;1.00;;
38117;SDS011;23928;47.562;7.508;2023-11-19T12:56:13;0.63;;;0.60;;
38117;SDS011;23928;47.562;7.508;2023-11-19T12:58:40;2.47;;;0.80;;
38117;SDS011;23928;47.562;7.508;2023-11-19T13:01:08;1.70;;;0.90;;
38117;SDS011;23928;47.562;7.508;2023-11-19T13:03:35;2.40;;;0.87;;
38117;SDS011;23928;47.562;7.508;2023-11-19T13:06:06;2.93;;;1.30;;
38117;SDS011;23928;47.562;7.508;2023-11-19T13:08:44;1.20;;;0.90;;
38117;SDS011;23928;47.562;7.508;2023-11-19T13:11:11;1.20;;;1.03;;
38117;SDS011;23928;47.562;7.508;2023-11-19T13:13:56;0.87;;;0.87;;
38117;SDS011;23928;47.562;7.508;2023-11-19T13:16:27;1.73;;;1.10;;
38117;SDS011;23928;47.562;7.508;2023-11-19T13:18:53;1.30;;;0.83;;
38117;SDS011;23928;47.562;7.508;2023-11-19T13:21:18;1.03;;;0.80;;
38117;SDS011;23928;47.562;7.508;2023-11-19T13:23:44;2.40;;;1.40;;
38117;SDS011;23928;47.562;7.508;2023-11-19T13:26:10;2.43;;;1.00;;
38117;SDS011;23928;47.562;7.508;2023-11-19T13:28:36;2.53;;;1.03;;
38117;SDS011;23928;47.562;7.508;2023-11-19T13:31:03;1.17;;;0.73;;
38117;SDS011;23928;47.562;7.508;2023-11-19T13:33:29;2.63;;;1.07;;
38117;SDS011;23928;47.562;7.508;2023-11-19T13:35:54;1.70;;;0.70;;
38117;SDS011;23928;47.562;7.508;2023-11-19T13:38:20;1.43;;;0.80;;
38117;SDS011;23928;47.562;7.508;2023-11-19T13:40:46;1.37;;;0.90;;
38117;SDS011;23928;47.562;7.508;2023-11-19T13:43:11;1.53;;;1.00;;
38117;SDS011;23928;47.562;7.508;2023-11-19T13:45:37;2.10;;;0.80;;
38117;SDS011;23928;47.562;7.508;2023-11-19T13:48:02;3.37;;;1.00;;
38117;SDS011;23928;47.562;7.508;2023-11-19T13:50:28;3.33;;;1.00;;
38117;SDS011;23928;47.562;7.508;2023-11-19T13:52:54;2.90;;;1.00;;
38117;SDS011;23928;47.562;7.508;2023-11-19T13:55:20;2.30;;;1.10;;
38117;SDS011;23928;47.562;7.508;2023-11-19T13:57:47;1.30;;;0.97;;
38117;SDS011;23928;47.562;7.508;2023-11-19T14:00:13;2.27;;;1.10;;
38117;SDS011;23928;47.562;7.508;2023-11-19T14:02:44;1.73;;;1.10;;
38117;SDS011;23928;47.562;7.508;2023-11-19T14:05:11;2.30;;;1.17;;
38117;SDS011;23928;47.562;7.508;2023-11-19T14:07:38;2.67;;;1.57;;
38117;SDS011;23928;47.562;7.508;2023-11-19T14:10:04;2.77;;;1.33;;
38117;SDS011;23928;47.562;7.508;2023-11-19T14:12:31;1.07;;;0.90;;
38117;SDS011;23928;47.562;7.508;2023-11-19T14:14:57;1.20;;;1.10;;
38117;SDS011;23928;47.562;7.508;2023-11-19T14:17:23;2.87;;;2.20;;
38117;SDS011;23928;47.562;7.508;2023-11-19T14:19:50;2.37;;;1.43;;
38117;SDS011;23928;47.562;7.508;2023-11-19T14:22:15;3.60;;;2.47;;
38117;SDS011;23928;47.562;7.508;2023-11-19T14:24:41;1.90;;;1.70;;
38117;SDS011;23928;47.562;7.508;2023-11-19T14:27:08;2.67;;;1.67;;
38117;SDS011;23928;47.562;7.508;2023-11-19T14:29:34;2.30;;;2.00;;
38117;SDS011;23928;47.562;7.508;2023-11-19T14:32:00;7.17;;;3.60;;
38117;SDS011;23928;47.562;7.508;2023-11-19T14:34:27;2.80;;;1.80;;
38117;SDS011;23928;47.562;7.508;2023-11-19T14:36:54;6.20;;;4.53;;
38117;SDS011;23928;47.562;7.508;2023-11-19T14:39:19;9.13;;;4.70;;
38117;SDS011;23928;47.562;7.508;2023-11-19T14:41:45;4.20;;;2.97;;
38117;SDS011;23928;47.562;7.508;2023-11-19T14:44:11;3.40;;;2.70;;
38117;SDS011;23928;47.562;7.508;2023-11-19T14:46:36;9.73;;;5.70;;
38117;SDS011;23928;47.562;7.508;2023-11-19T14:49:03;6.80;;;4.07;;
38117;SDS011;23928;47.562;7.508;2023-11-19T14:51:35;6.57;;;3.83;;
38117;SDS011;23928;47.562;7.508;2023-11-19T14:54:02;7.03;;;2.10;;
38117;SDS011;23928;47.562;7.508;2023-11-19T14:56:31;5.07;;;4.63;;
38117;SDS011;23928;47.562;7.508;2023-11-19T14:58:57;6.20;;;4.13;;
38117;SDS011;23928;47.562;7.508;2023-11-19T15:01:23;3.03;;;2.77;;